KTIK/TIK METAR and TAF weather

Enter ICAO airport designator
Station Type Date Time Source
KTIK METAR 2021/03/01 02:56 UTC NOAA

KTIK 010256Z AUTO M 10SM CLR 09/M01 A3010 RMK AO2 SLP203 T00851013 52032 $


Station Type Date Time Source
KTIK Decoded METAR 2021/03/01 02:56 UTC NOAA

Tinker Air Force Base, OK, United States (KTIK) 35-25N 097-23W 397M
Feb 28, 2021 - 09:56 PM EST / 2021.03.01 0256 UTC
Visibility: 10 mile(s):0
Sky conditions: clear
Temperature: 47.3 F (8.5 C)
Dew Point: 29.7 F (-1.3 C)
Relative Humidity: 50%
Pressure (altimeter): 30.1 in. Hg (1019 hPa)
Pressure tendency: 0.09 inches (3.2 hPa) higher than three hours ago
ob: KTIK 010256Z AUTO M 10SM CLR 09/M01 A3010 RMK AO2 SLP203 T00851013 52032
cycle: 3

Station Type Date Time Source
KTIK TAF 2021/03/01 02:57 UTC NOAA

TAF TAF KTIK 010200Z 0102/0208 02012G18KT 9999 SCT100 510433 QNH3003INS
BECMG 0111/0112 02008KT 9999 FEW120 QNH3027INS TX11/0121Z TN02/0112Z

Example: see airport list